createdAt,value
2018-09-04T00:00:08.412Z,1003.25
2018-09-04T00:01:08.419Z,1003.26
2018-09-04T00:02:08.391Z,1003.20
2018-09-04T00:03:08.384Z,1003.20
2018-09-04T00:04:08.374Z,1003.23
2018-09-04T00:05:08.374Z,1003.21
2018-09-04T00:06:08.346Z,1003.19
2018-09-04T00:07:08.337Z,1003.27
2018-09-04T00:08:08.335Z,1003.27
2018-09-04T00:09:08.315Z,1003.31
2018-09-04T00:10:08.306Z,1003.29
2018-09-04T00:11:08.294Z,1003.26
2018-09-04T00:12:08.368Z,1003.30
2018-09-04T00:13:08.275Z,1003.27
2018-09-04T00:14:08.260Z,1003.30
2018-09-04T00:15:08.248Z,1003.26
2018-09-04T00:16:08.239Z,1003.25
2018-09-04T00:17:08.227Z,1003.23
2018-09-04T00:18:08.228Z,1003.29
2018-09-04T00:19:08.207Z,1003.20
2018-09-04T00:20:08.212Z,1003.20
2018-09-04T00:21:08.184Z,1003.21
2018-09-04T00:22:08.189Z,1003.21
2018-09-04T00:23:08.165Z,1003.21
2018-09-04T00:24:08.150Z,1003.24
2018-09-04T00:25:08.143Z,1003.26
2018-09-04T00:26:08.127Z,1003.23
2018-09-04T00:27:08.125Z,1003.24
2018-09-04T00:28:08.129Z,1003.23
2018-09-04T00:29:08.098Z,1003.22
2018-09-04T00:30:08.120Z,1003.24
2018-09-04T00:31:08.077Z,1003.21
2018-09-04T00:32:08.068Z,1003.22
2018-09-04T00:33:08.058Z,1003.18
2018-09-04T00:34:08.043Z,1003.22
2018-09-04T00:35:08.035Z,1003.23
2018-09-04T00:36:08.038Z,1003.24
2018-09-04T00:37:08.011Z,1003.23
2018-09-04T00:38:07.996Z,1003.26
2018-09-04T00:39:07.990Z,1003.27
2018-09-04T00:40:07.989Z,1003.29
2018-09-04T00:41:07.965Z,1003.27
2018-09-04T00:42:07.956Z,1003.28
2018-09-04T00:43:07.946Z,1003.28
2018-09-04T00:44:07.933Z,1003.28
2018-09-04T00:45:07.944Z,1003.28
2018-09-04T00:46:07.913Z,1003.32
2018-09-04T00:47:07.901Z,1003.29
2018-09-04T00:48:07.888Z,1003.27
2018-09-04T00:49:07.878Z,1003.25
2018-09-04T00:50:07.892Z,1003.25
2018-09-04T00:51:07.856Z,1003.25
2018-09-04T00:52:07.846Z,1003.25
2018-09-04T00:53:07.834Z,1003.21
2018-09-04T00:54:07.824Z,1003.22
2018-09-04T00:55:07.811Z,1003.18
2018-09-04T00:56:07.816Z,1003.17
2018-09-04T00:57:07.791Z,1003.18
2018-09-04T00:58:07.783Z,1003.13
2018-09-04T00:59:07.827Z,1003.16
2018-09-04T01:00:07.760Z,1003.16
2018-09-04T01:01:07.767Z,1003.18
2018-09-04T01:02:07.734Z,1003.13
2018-09-04T01:03:07.745Z,1003.16
2018-09-04T01:04:07.714Z,1003.19
2018-09-04T01:05:07.703Z,1003.21
2018-09-04T01:06:07.725Z,1003.18
2018-09-04T01:07:07.685Z,1003.18
2018-09-04T01:08:07.670Z,1003.16
2018-09-04T01:09:07.660Z,1003.17
2018-09-04T01:10:07.648Z,1003.20
2018-09-04T01:11:07.637Z,1003.16
2018-09-04T01:12:07.645Z,1003.22
2018-09-04T01:13:07.619Z,1003.20
2018-09-04T01:14:07.603Z,1003.23
2018-09-04T01:15:07.591Z,1003.29
2018-09-04T01:16:07.580Z,1003.28
2018-09-04T01:17:07.583Z,1003.25
2018-09-04T01:18:07.558Z,1003.27
2018-09-04T01:19:07.551Z,1003.26
2018-09-04T01:20:07.549Z,1003.28
2018-09-04T01:21:07.528Z,1003.34
2018-09-04T01:22:07.514Z,1003.33
2018-09-04T01:23:07.504Z,1003.34
2018-09-04T01:24:07.506Z,1003.38
2018-09-04T01:25:07.500Z,1003.40
2018-09-04T01:26:07.486Z,1003.38
2018-09-04T01:27:07.464Z,1003.40
2018-09-04T01:28:07.450Z,1003.40
2018-09-04T01:29:07.438Z,1003.38
2018-09-04T01:30:07.426Z,1003.40
2018-09-04T01:31:07.414Z,1003.38
2018-09-04T01:32:07.427Z,1003.37
2018-09-04T01:33:07.394Z,1003.36
2018-09-04T01:34:07.380Z,1003.38
2018-09-04T01:35:07.380Z,1003.34
2018-09-04T01:36:07.362Z,1003.33
2018-09-04T01:37:07.347Z,1003.33
2018-09-04T01:38:07.360Z,1003.34
2018-09-04T01:39:07.323Z,1003.35
2018-09-04T01:40:07.317Z,1003.38
2018-09-04T01:41:07.302Z,1003.38
2018-09-04T01:42:07.294Z,1003.40
2018-09-04T01:43:07.280Z,1003.38
2018-09-04T01:44:07.285Z,1003.40
2018-09-04T01:45:07.276Z,1003.39
2018-09-04T01:46:07.249Z,1003.35
2018-09-04T01:47:07.238Z,1003.33
2018-09-04T01:48:07.234Z,1003.34
2018-09-04T01:49:07.214Z,1003.35
2018-09-04T01:50:07.205Z,1003.37
2018-09-04T01:51:07.234Z,1003.37
2018-09-04T01:52:07.205Z,1003.36
2018-09-04T01:53:07.175Z,1003.36
2018-09-04T01:54:07.163Z,1003.34
2018-09-04T01:55:07.150Z,1003.40
2018-09-04T01:56:07.137Z,1003.37
2018-09-04T01:57:07.143Z,1003.38
2018-09-04T01:58:07.117Z,1003.36
2018-09-04T01:59:07.106Z,1003.33
2018-09-04T02:00:07.096Z,1003.33
2018-09-04T02:01:07.084Z,1003.31
2018-09-04T02:02:07.084Z,1003.29
2018-09-04T02:03:07.079Z,1003.32
2018-09-04T02:04:07.050Z,1003.26
2018-09-04T02:05:07.037Z,1003.27
2018-09-04T02:06:07.028Z,1003.24
2018-09-04T02:07:07.020Z,1003.28
2018-09-04T02:08:07.007Z,1003.24
2018-09-04T02:09:07.012Z,1003.18
2018-09-04T02:10:06.983Z,1003.23
2018-09-04T02:11:06.972Z,1003.23
2018-09-04T02:12:06.974Z,1003.19
2018-09-04T02:13:06.974Z,1003.20
2018-09-04T02:14:06.942Z,1003.19
2018-09-04T02:15:06.927Z,1003.18
2018-09-04T02:16:06.918Z,1003.13
2018-09-04T02:17:06.908Z,1003.17
2018-09-04T02:18:06.894Z,1003.10
2018-09-04T02:19:06.895Z,1003.11
2018-09-04T02:20:06.873Z,1003.10
2018-09-04T02:21:06.864Z,1003.15
2018-09-04T02:22:06.852Z,1003.13
2018-09-04T02:23:06.842Z,1003.11
2018-09-04T02:24:06.847Z,1003.09
2018-09-04T02:25:06.822Z,1003.04
2018-09-04T02:26:06.809Z,1003.08
2018-09-04T02:27:06.814Z,1003.09
2018-09-04T02:28:06.784Z,1003.07
2018-09-04T02:29:06.774Z,1003.07
2018-09-04T02:30:06.765Z,1003.07
2018-09-04T02:31:06.755Z,1003.05
2018-09-04T02:32:06.743Z,1003.07
2018-09-04T02:33:06.804Z,1003.00
2018-09-04T02:34:06.722Z,1003.03
2018-09-04T02:35:06.711Z,1003.04
2018-09-04T02:36:06.701Z,1003.01
2018-09-04T02:37:06.687Z,1003.03
2018-09-04T02:38:06.726Z,1003.00
2018-09-04T02:39:06.675Z,1002.99
2018-09-04T02:40:06.654Z,1003.04
2018-09-04T02:41:06.641Z,1003.07
2018-09-04T02:42:06.632Z,1003.04
2018-09-04T02:43:06.623Z,1003.12
2018-09-04T02:44:06.651Z,1003.12
2018-09-04T02:45:06.601Z,1003.12
2018-09-04T02:46:06.592Z,1003.11
2018-09-04T02:47:06.581Z,1003.13
2018-09-04T02:48:06.570Z,1003.13
2018-09-04T02:49:06.559Z,1003.14
2018-09-04T02:50:06.572Z,1003.11
2018-09-04T02:51:06.537Z,1003.15
2018-09-04T02:52:06.527Z,1003.15
2018-09-04T02:53:06.515Z,1003.18
2018-09-04T02:54:06.503Z,1003.19
2018-09-04T02:55:06.493Z,1003.20
2018-09-04T02:56:06.491Z,1003.13
2018-09-04T02:57:06.467Z,1003.15
2018-09-04T02:58:06.458Z,1003.16
2018-09-04T02:59:06.448Z,1003.16
2018-09-04T03:00:06.453Z,1003.14
2018-09-04T03:01:06.427Z,1003.15
2018-09-04T03:02:06.423Z,1003.13
2018-09-04T03:03:06.400Z,1003.13
2018-09-04T03:04:06.394Z,1003.09
2018-09-04T03:05:06.408Z,1003.09
2018-09-04T03:06:06.372Z,1003.10
2018-09-04T03:07:06.359Z,1003.09
2018-09-04T03:08:06.347Z,1003.09
2018-09-04T03:09:06.341Z,1003.09
2018-09-04T03:10:06.327Z,1003.08
2018-09-04T03:11:06.327Z,1003.01
2018-09-04T03:12:06.306Z,1002.97
2018-09-04T03:13:06.295Z,1003.01
2018-09-04T03:14:06.282Z,1003.00
2018-09-04T03:15:06.272Z,1003.01
2018-09-04T03:16:06.278Z,1003.01
2018-09-04T03:17:06.248Z,1003.01
2018-09-04T03:18:06.246Z,1003.00
2018-09-04T03:19:06.241Z,1003.01
2018-09-04T03:20:06.216Z,1002.97
2018-09-04T03:21:06.208Z,1002.98
2018-09-04T03:22:06.209Z,1002.99
2018-09-04T03:23:06.248Z,1002.97
2018-09-04T03:24:06.184Z,1003.02
2018-09-04T03:25:06.163Z,1003.00
2018-09-04T03:26:06.155Z,1002.99
2018-09-04T03:27:06.154Z,1002.98
2018-09-04T03:28:06.147Z,1002.99
2018-09-04T03:29:06.142Z,1003.02
2018-09-04T03:30:06.110Z,1003.02
2018-09-04T03:31:06.099Z,1003.02
2018-09-04T03:32:06.091Z,1003.04
2018-09-04T03:33:06.091Z,1003.02
2018-09-04T03:34:06.080Z,1003.02
2018-09-04T03:35:06.053Z,1003.01
2018-09-04T03:36:06.047Z,1003.04
2018-09-04T03:37:06.066Z,1003.06
2018-09-04T03:38:06.019Z,1003.07
2018-09-04T03:39:06.015Z,1003.10
2018-09-04T03:40:06.019Z,1003.12
2018-09-04T03:41:05.990Z,1003.11
2018-09-04T03:42:05.978Z,1003.15
2018-09-04T03:43:05.968Z,1003.11
2018-09-04T03:44:05.953Z,1003.12
2018-09-04T03:45:05.942Z,1003.07
2018-09-04T03:46:05.947Z,1003.08
2018-09-04T03:47:05.929Z,1003.05
2018-09-04T03:48:05.909Z,1003.04
2018-09-04T03:49:05.898Z,1003.06
2018-09-04T03:50:05.918Z,1003.06
2018-09-04T03:51:05.878Z,1003.08
2018-09-04T03:52:05.898Z,1003.12
2018-09-04T03:53:05.859Z,1003.06
2018-09-04T03:54:05.844Z,1003.03
2018-09-04T03:55:05.831Z,1003.05
2018-09-04T03:56:05.843Z,1003.08
2018-09-04T03:57:05.815Z,1003.07
2018-09-04T03:58:05.801Z,1003.10
2018-09-04T03:59:05.787Z,1003.07
2018-09-04T04:00:05.802Z,1003.09
2018-09-04T04:01:05.775Z,1003.13
2018-09-04T04:02:05.753Z,1003.11
2018-09-04T04:03:05.743Z,1003.16
2018-09-04T04:04:05.733Z,1003.17
2018-09-04T04:05:05.725Z,1003.20
2018-09-04T04:06:05.723Z,1003.22
2018-09-04T04:07:05.701Z,1003.19
2018-09-04T04:08:05.690Z,1003.26
2018-09-04T04:09:05.676Z,1003.23
2018-09-04T04:10:05.667Z,1003.29
2018-09-04T04:11:05.668Z,1003.26
2018-09-04T04:12:05.748Z,1003.27
2018-09-04T04:13:05.631Z,1003.31
2018-09-04T04:14:05.622Z,1003.30
2018-09-04T04:15:05.614Z,1003.28
2018-09-04T04:16:05.636Z,1003.29
2018-09-04T04:17:05.597Z,1003.28
2018-09-04T04:18:05.578Z,1003.30
2018-09-04T04:19:05.568Z,1003.30
2018-09-04T04:20:05.556Z,1003.26
2018-09-04T04:21:05.545Z,1003.29
2018-09-04T04:22:05.543Z,1003.31
2018-09-04T04:23:05.523Z,1003.27
2018-09-04T04:24:05.513Z,1003.26
2018-09-04T04:25:05.501Z,1003.29
2018-09-04T04:26:05.502Z,1003.25
2018-09-04T04:27:05.517Z,1003.24
2018-09-04T04:28:05.467Z,1003.24
2018-09-04T04:29:05.455Z,1003.24
2018-09-04T04:30:05.448Z,1003.17
2018-09-04T04:31:05.432Z,1003.24
2018-09-04T04:32:05.422Z,1003.26
2018-09-04T04:33:05.518Z,1003.22
2018-09-04T04:34:05.398Z,1003.20
2018-09-04T04:35:05.390Z,1003.17
2018-09-04T04:36:05.375Z,1003.27
2018-09-04T04:37:05.376Z,1003.20
2018-09-04T04:38:05.351Z,1003.18
2018-09-04T04:39:05.347Z,1003.18
2018-09-04T04:40:05.382Z,1003.22
2018-09-04T04:41:05.324Z,1003.28
2018-09-04T04:42:05.319Z,1003.26
2018-09-04T04:43:05.296Z,1003.22
2018-09-04T04:44:05.285Z,1003.29
2018-09-04T04:45:05.276Z,1003.31
2018-09-04T04:46:05.264Z,1003.32
2018-09-04T04:47:05.271Z,1003.37
2018-09-04T04:48:05.256Z,1003.32
2018-09-04T04:49:05.235Z,1003.32
2018-09-04T04:50:05.231Z,1003.32
2018-09-04T04:51:05.208Z,1003.35
2018-09-04T04:52:05.200Z,1003.33
2018-09-04T04:53:05.189Z,1003.38
2018-09-04T04:54:05.175Z,1003.33
2018-09-04T04:55:05.177Z,1003.32
2018-09-04T04:56:05.151Z,1003.38
2018-09-04T04:57:05.140Z,1003.36
2018-09-04T04:58:05.133Z,1003.32
2018-09-04T04:59:05.120Z,1003.37
2018-09-04T05:00:05.130Z,1003.42
2018-09-04T05:01:05.099Z,1003.33
2018-09-04T05:02:05.087Z,1003.34
2018-09-04T05:03:05.073Z,1003.38
2018-09-04T05:04:05.066Z,1003.39
2018-09-04T05:05:05.070Z,1003.38
2018-09-04T05:06:05.058Z,1003.37
2018-09-04T05:07:05.030Z,1003.45
2018-09-04T05:08:05.017Z,1003.44
2018-09-04T05:09:05.009Z,1003.48
2018-09-04T05:10:04.994Z,1003.43
2018-09-04T05:11:05.065Z,1003.49
2018-09-04T05:12:04.990Z,1003.48
2018-09-04T05:13:04.963Z,1003.50
2018-09-04T05:14:04.949Z,1003.48
2018-09-04T05:15:04.938Z,1003.52
2018-09-04T05:16:04.952Z,1003.48
2018-09-04T05:17:04.919Z,1003.51
2018-09-04T05:18:04.904Z,1003.53
2018-09-04T05:19:04.896Z,1003.52
2018-09-04T05:20:04.882Z,1003.54
2018-09-04T05:21:04.870Z,1003.50
2018-09-04T05:22:04.874Z,1003.51
2018-09-04T05:23:04.849Z,1003.49
2018-09-04T05:24:04.837Z,1003.50
2018-09-04T05:25:04.829Z,1003.52
2018-09-04T05:26:04.819Z,1003.55
2018-09-04T05:27:04.819Z,1003.53
2018-09-04T05:28:04.795Z,1003.50
2018-09-04T05:29:04.786Z,1003.52
2018-09-04T05:30:04.771Z,1003.53
2018-09-04T05:31:04.762Z,1003.57
2018-09-04T05:32:04.767Z,1003.55
2018-09-04T05:33:04.744Z,1003.58
2018-09-04T05:34:04.727Z,1003.55
2018-09-04T05:35:04.730Z,1003.63
2018-09-04T05:36:04.707Z,1003.61
2018-09-04T05:37:04.712Z,1003.67
2018-09-04T05:38:04.698Z,1003.67
2018-09-04T05:39:04.678Z,1003.66
2018-09-04T05:40:04.669Z,1003.65
2018-09-04T05:41:04.654Z,1003.63
2018-09-04T05:42:04.656Z,1003.68
2018-09-04T05:43:04.633Z,1003.65
2018-09-04T05:44:04.634Z,1003.68
2018-09-04T05:45:04.614Z,1003.68
2018-09-04T05:46:04.599Z,1003.68
2018-09-04T05:47:04.587Z,1003.66
2018-09-04T05:48:04.588Z,1003.62
2018-09-04T05:49:04.572Z,1003.67
2018-09-04T05:50:04.557Z,1003.66
2018-09-04T05:51:04.546Z,1003.65
2018-09-04T05:52:04.533Z,1003.65
2018-09-04T05:53:04.538Z,1003.65
2018-09-04T05:54:04.526Z,1003.65
2018-09-04T05:55:04.557Z,1003.60
2018-09-04T05:56:04.493Z,1003.63
2018-09-04T05:57:04.482Z,1003.61
2018-09-04T05:58:04.467Z,1003.62
2018-09-04T05:59:04.494Z,1003.59
2018-09-04T06:00:04.448Z,1003.59
2018-09-04T06:01:04.438Z,1003.61
2018-09-04T06:02:04.426Z,1003.58
2018-09-04T06:03:04.419Z,1003.58
2018-09-04T06:04:04.402Z,1003.55
2018-09-04T06:05:04.409Z,1003.57
2018-09-04T06:06:04.381Z,1003.59
2018-09-04T06:07:04.369Z,1003.58
2018-09-04T06:08:04.360Z,1003.58
2018-09-04T06:09:04.351Z,1003.64
2018-09-04T06:10:04.340Z,1003.61
2018-09-04T06:11:04.372Z,1003.58
2018-09-04T06:12:04.316Z,1003.59
2018-09-04T06:13:04.307Z,1003.53
2018-09-04T06:14:04.293Z,1003.54
2018-09-04T06:15:04.285Z,1003.53
2018-09-04T06:16:04.271Z,1003.54
2018-09-04T06:17:04.284Z,1003.53
2018-09-04T06:18:04.252Z,1003.51
2018-09-04T06:19:04.237Z,1003.53
2018-09-04T06:20:04.261Z,1003.52
2018-09-04T06:21:04.220Z,1003.47
2018-09-04T06:22:04.211Z,1003.45
2018-09-04T06:23:04.213Z,1003.47
2018-09-04T06:24:04.184Z,1003.47
2018-09-04T06:25:04.187Z,1003.48
2018-09-04T06:26:04.165Z,1003.51
2018-09-04T06:27:04.166Z,1003.45
2018-09-04T06:28:04.144Z,1003.51
2018-09-04T06:29:04.130Z,1003.48
2018-09-04T06:30:04.121Z,1003.47
2018-09-04T06:31:04.133Z,1003.48
2018-09-04T06:32:04.099Z,1003.49
2018-09-04T06:33:04.088Z,1003.49
2018-09-04T06:34:04.097Z,1003.44
2018-09-04T06:35:04.067Z,1003.45
2018-09-04T06:36:04.056Z,1003.48
2018-09-04T06:37:04.081Z,1003.52
2018-09-04T06:38:04.036Z,1003.52
2018-09-04T06:39:04.022Z,1003.54
2018-09-04T06:40:04.009Z,1003.54
2018-09-04T06:41:03.998Z,1003.53
2018-09-04T06:42:03.989Z,1003.59
2018-09-04T06:43:03.992Z,1003.59
2018-09-04T06:44:03.980Z,1003.60
2018-09-04T06:45:03.971Z,1003.62
2018-09-04T06:46:03.943Z,1003.61
2018-09-04T06:47:03.932Z,1003.57
2018-09-04T06:48:03.925Z,1003.58
2018-09-04T06:49:03.926Z,1003.56
2018-09-04T06:50:03.914Z,1003.59
2018-09-04T06:51:03.888Z,1003.61
2018-09-04T06:52:03.877Z,1003.61
2018-09-04T06:53:03.869Z,1003.61
2018-09-04T06:54:03.858Z,1003.63
2018-09-04T06:55:03.859Z,1003.64
2018-09-04T06:56:03.833Z,1003.68
2018-09-04T06:57:03.825Z,1003.71
2018-09-04T06:58:03.812Z,1003.68
2018-09-04T06:59:03.803Z,1003.72
2018-09-04T07:00:03.808Z,1003.75
2018-09-04T07:01:03.795Z,1003.74
2018-09-04T07:02:03.768Z,1003.76
2018-09-04T07:03:03.760Z,1003.77
2018-09-04T07:04:03.745Z,1003.80
2018-09-04T07:05:03.736Z,1003.81
2018-09-04T07:06:03.765Z,1003.81
2018-09-04T07:07:03.733Z,1003.83
2018-09-04T07:08:03.705Z,1003.83
2018-09-04T07:09:03.692Z,1003.84
2018-09-04T07:10:03.686Z,1003.78
2018-09-04T07:11:03.686Z,1003.83
2018-09-04T07:12:03.657Z,1003.83
2018-09-04T07:13:03.649Z,1003.79
2018-09-04T07:14:03.639Z,1003.77
2018-09-04T07:15:03.654Z,1003.79
2018-09-04T07:16:03.659Z,1003.81
2018-09-04T07:17:03.614Z,1003.85
2018-09-04T07:18:03.593Z,1003.85
2018-09-04T07:19:03.581Z,1003.85
2018-09-04T07:20:03.575Z,1003.85
2018-09-04T07:21:03.561Z,1003.84
2018-09-04T07:22:03.563Z,1003.85
2018-09-04T07:23:03.539Z,1003.84
2018-09-04T07:24:03.546Z,1003.84
2018-09-04T07:25:03.533Z,1003.86
2018-09-04T07:26:03.506Z,1003.85
2018-09-04T07:27:03.538Z,1003.89
2018-09-04T07:28:03.487Z,1003.90
2018-09-04T07:29:03.475Z,1003.91
2018-09-04T07:30:03.465Z,1003.84
2018-09-04T07:31:03.452Z,1003.86
2018-09-04T07:32:03.440Z,1003.90
2018-09-04T07:33:03.442Z,1003.85
2018-09-04T07:34:03.419Z,1003.89
2018-09-04T07:35:03.408Z,1003.93
2018-09-04T07:36:03.397Z,1003.92
2018-09-04T07:37:03.410Z,1003.94
2018-09-04T07:38:03.374Z,1003.92
2018-09-04T07:39:03.363Z,1003.99
2018-09-04T07:40:03.352Z,1003.98
2018-09-04T07:41:03.341Z,1003.98
2018-09-04T07:42:03.395Z,1004.02
2018-09-04T07:43:03.335Z,1004.04
2018-09-04T07:44:03.311Z,1004.03
2018-09-04T07:45:03.302Z,1004.06
2018-09-04T07:46:03.289Z,1004.04
2018-09-04T07:47:03.275Z,1004.04
2018-09-04T07:48:03.284Z,1004.02
2018-09-04T07:49:03.280Z,1004.02
2018-09-04T07:50:03.248Z,1004.05
2018-09-04T07:51:03.235Z,1004.07
2018-09-04T07:52:03.223Z,1004.05
2018-09-04T07:53:03.210Z,1004.05
2018-09-04T07:54:03.206Z,1004.04
2018-09-04T07:55:03.205Z,1004.03
2018-09-04T07:56:03.179Z,1004.04
2018-09-04T07:57:03.178Z,1004.04
2018-09-04T07:58:03.159Z,1004.01
2018-09-04T07:59:03.148Z,1003.99
2018-09-04T08:00:03.155Z,1003.96
2018-09-04T08:01:03.191Z,1003.99
2018-09-04T08:02:03.112Z,1004.01
2018-09-04T08:03:03.108Z,1004.04
2018-09-04T08:04:03.096Z,1004.05
2018-09-04T08:05:03.099Z,1004.04
2018-09-04T08:06:03.073Z,1004.05
2018-09-04T08:07:03.061Z,1004.08
2018-09-04T08:08:03.051Z,1004.06
2018-09-04T08:09:03.053Z,1004.05
2018-09-04T08:10:03.038Z,1004.10
2018-09-04T08:11:03.019Z,1004.05
2018-09-04T08:12:03.008Z,1004.10
2018-09-04T08:13:02.995Z,1004.15
2018-09-04T08:14:02.996Z,1004.13
2018-09-04T08:15:02.973Z,1004.03
2018-09-04T08:16:02.963Z,1004.02
2018-09-04T08:17:02.951Z,1004.09
2018-09-04T08:18:02.937Z,1004.10
2018-09-04T08:19:02.953Z,1004.10
2018-09-04T08:20:02.916Z,1004.15
2018-09-04T08:21:02.909Z,1004.13
2018-09-04T08:22:02.897Z,1004.15
2018-09-04T08:23:02.888Z,1004.24
2018-09-04T08:24:02.884Z,1004.22
2018-09-04T08:25:02.873Z,1004.22
2018-09-04T08:26:02.920Z,1004.17
2018-09-04T08:27:02.844Z,1004.16
2018-09-04T08:28:02.850Z,1004.23
2018-09-04T08:29:02.823Z,1004.22
2018-09-04T08:30:02.824Z,1004.21
2018-09-04T08:31:02.805Z,1004.13
2018-09-04T08:32:02.789Z,1004.14
2018-09-04T08:33:02.817Z,1004.16
2018-09-04T08:34:02.768Z,1004.15
2018-09-04T08:35:02.759Z,1004.12
2018-09-04T08:36:02.748Z,1004.12
2018-09-04T08:37:02.736Z,1004.05
2018-09-04T08:38:02.725Z,1004.08
2018-09-04T08:39:02.741Z,1004.01
2018-09-04T08:40:02.724Z,1004.09
2018-09-04T08:41:02.697Z,1004.12
2018-09-04T08:42:02.681Z,1004.15
2018-09-04T08:43:02.674Z,1004.12
2018-09-04T08:44:02.660Z,1004.12
2018-09-04T08:45:02.675Z,1004.04
2018-09-04T08:46:02.634Z,1004.10
2018-09-04T08:47:02.635Z,1004.06
2018-09-04T08:48:02.616Z,1004.05
2018-09-04T08:49:02.613Z,1004.03
2018-09-04T08:50:02.602Z,1004.06
2018-09-04T08:51:02.602Z,1004.10
2018-09-04T08:52:02.577Z,1004.08
2018-09-04T08:53:02.565Z,1004.11
2018-09-04T08:54:02.554Z,1004.13
2018-09-04T08:55:02.547Z,1004.12
2018-09-04T08:56:02.549Z,1004.10
2018-09-04T08:57:02.541Z,1004.14
2018-09-04T08:58:02.514Z,1004.20
2018-09-04T08:59:02.506Z,1004.16
2018-09-04T09:00:02.501Z,1004.18
2018-09-04T09:01:02.482Z,1004.18
2018-09-04T09:02:02.467Z,1004.21
2018-09-04T09:03:02.482Z,1004.23
2018-09-04T09:04:02.449Z,1004.28
2018-09-04T09:05:02.440Z,1004.27
2018-09-04T09:06:02.426Z,1004.23
2018-09-04T09:07:02.414Z,1004.22
2018-09-04T09:08:02.402Z,1004.21
2018-09-04T09:09:02.414Z,1004.21
2018-09-04T09:10:02.388Z,1004.22
2018-09-04T09:11:02.372Z,1004.18
2018-09-04T09:12:02.361Z,1004.21
2018-09-04T09:13:02.393Z,1004.18
2018-09-04T09:14:02.340Z,1004.19
2018-09-04T09:15:02.332Z,1004.17
2018-09-04T09:16:02.322Z,1004.23
2018-09-04T09:17:02.310Z,1004.23
2018-09-04T09:18:02.297Z,1004.21
2018-09-04T09:19:02.303Z,1004.15
2018-09-04T09:20:02.280Z,1004.22
2018-09-04T09:21:02.267Z,1004.17
2018-09-04T09:22:02.256Z,1004.19
2018-09-04T09:23:02.258Z,1004.22
2018-09-04T09:24:02.283Z,1004.19
2018-09-04T09:25:02.225Z,1004.19
2018-09-04T09:26:02.216Z,1004.19
2018-09-04T09:27:02.206Z,1004.20
2018-09-04T09:28:02.196Z,1004.22
2018-09-04T09:29:02.186Z,1004.21
2018-09-04T09:30:02.252Z,1004.20
2018-09-04T09:31:02.163Z,1004.26
2018-09-04T09:32:02.153Z,1004.20
2018-09-04T09:33:02.145Z,1004.20
2018-09-04T09:34:02.134Z,1004.18
2018-09-04T09:35:02.139Z,1004.22
2018-09-04T09:36:02.126Z,1004.18
2018-09-04T09:37:02.170Z,1004.23
2018-09-04T09:38:02.092Z,1004.25
2018-09-04T09:39:02.082Z,1004.27
2018-09-04T09:40:02.081Z,1004.28
2018-09-04T09:41:02.100Z,1004.27
2018-09-04T09:42:02.051Z,1004.24
2018-09-04T09:43:02.041Z,1004.22
2018-09-04T09:44:02.028Z,1004.25
2018-09-04T09:45:02.017Z,1004.24
2018-09-04T09:46:02.006Z,1004.20
2018-09-04T09:47:02.014Z,1004.23
2018-09-04T09:48:01.987Z,1004.22
2018-09-04T09:49:01.976Z,1004.22
2018-09-04T09:50:01.969Z,1004.26
2018-09-04T09:51:01.955Z,1004.27
2018-09-04T09:52:01.960Z,1004.23
2018-09-04T09:53:01.984Z,1004.21
2018-09-04T09:54:01.999Z,1004.20
2018-09-04T09:55:01.914Z,1004.22
2018-09-04T09:56:01.926Z,1004.27
2018-09-04T09:57:01.911Z,1004.21
2018-09-04T09:58:01.883Z,1004.11
2018-09-04T09:59:01.873Z,1004.15
2018-09-04T10:00:01.887Z,1004.14
2018-09-04T10:01:01.858Z,1004.14
2018-09-04T10:02:01.873Z,1004.18
2018-09-04T10:03:01.832Z,1004.12
2018-09-04T10:04:01.920Z,1004.16
2018-09-04T10:05:01.812Z,1004.13
2018-09-04T10:06:01.803Z,1004.15
2018-09-04T10:07:01.809Z,1004.16
2018-09-04T10:08:01.823Z,1004.11
2018-09-04T10:09:01.772Z,1004.11
2018-09-04T10:10:01.798Z,1004.09
2018-09-04T10:11:01.749Z,1004.06
2018-09-04T10:12:01.742Z,1004.06
2018-09-04T10:13:01.744Z,1004.03
2018-09-04T10:14:01.763Z,1004.05
2018-09-04T10:15:01.709Z,1004.05
2018-09-04T10:16:01.700Z,1003.99
2018-09-04T10:17:01.689Z,1004.08
2018-09-04T10:18:01.695Z,1004.04
2018-09-04T10:19:01.670Z,1004.10
2018-09-04T10:20:01.787Z,1004.11
2018-09-04T10:21:01.646Z,1004.10
2018-09-04T10:22:01.639Z,1004.11
2018-09-04T10:23:01.654Z,1004.09
2018-09-04T10:24:01.615Z,1004.13
2018-09-04T10:25:01.605Z,1004.01
2018-09-04T10:26:01.598Z,1004.02
2018-09-04T10:27:01.585Z,1003.97
2018-09-04T10:28:01.580Z,1004.02
2018-09-04T10:29:01.582Z,1003.88
2018-09-04T10:30:01.555Z,1003.92
2018-09-04T10:31:01.546Z,1003.81
2018-09-04T10:32:01.535Z,1003.84
2018-09-04T10:33:01.526Z,1003.94
2018-09-04T10:34:01.526Z,1003.88
2018-09-04T10:35:01.508Z,1003.78
2018-09-04T10:36:01.497Z,1003.82
2018-09-04T10:37:01.496Z,1003.88
2018-09-04T10:38:01.476Z,1003.76
2018-09-04T10:39:01.506Z,1003.71
2018-09-04T10:40:01.458Z,1003.74
2018-09-04T10:41:01.443Z,1003.76
2018-09-04T10:42:01.453Z,1003.78
2018-09-04T10:43:01.423Z,1003.77
2018-09-04T10:44:01.418Z,1003.81
2018-09-04T10:45:01.419Z,1003.70
2018-09-04T10:46:01.396Z,1003.84
2018-09-04T10:47:01.384Z,1003.65
2018-09-04T10:48:01.375Z,1003.59
2018-09-04T10:49:01.389Z,1003.57
2018-09-04T10:50:01.356Z,1003.52
2018-09-04T10:51:01.342Z,1003.62
2018-09-04T10:52:01.335Z,1003.74
2018-09-04T10:53:01.321Z,1003.70
2018-09-04T10:54:01.309Z,1003.74
2018-09-04T10:55:01.321Z,1003.71
2018-09-04T10:56:01.291Z,1003.68
2018-09-04T10:57:01.282Z,1003.77
2018-09-04T10:58:01.272Z,1003.82
2018-09-04T10:59:01.265Z,1003.83
2018-09-04T11:00:01.252Z,1003.85
2018-09-04T11:01:01.251Z,1003.88
2018-09-04T11:02:01.281Z,1003.85
2018-09-04T11:03:01.217Z,1003.83
2018-09-04T11:04:01.208Z,1003.85
2018-09-04T11:05:01.197Z,1003.87
2018-09-04T11:06:01.187Z,1003.90
2018-09-04T11:07:01.178Z,1003.82
2018-09-04T11:08:01.185Z,1003.82
2018-09-04T11:09:01.174Z,1003.87
2018-09-04T11:10:01.333Z,1003.83
2018-09-04T11:11:01.153Z,1003.84
2018-09-04T11:12:01.128Z,1003.82
2018-09-04T11:13:01.115Z,1003.84
2018-09-04T11:14:01.105Z,1003.80
2018-09-04T11:15:01.150Z,1003.79
2018-09-04T11:16:01.104Z,1003.76
2018-09-04T11:17:01.075Z,1003.80
2018-09-04T11:18:01.066Z,1003.83
2018-09-04T11:19:01.057Z,1003.85
2018-09-04T11:20:01.045Z,1003.89
2018-09-04T11:21:01.052Z,1003.89
2018-09-04T11:22:01.045Z,1003.90
2018-09-04T11:23:01.020Z,1003.86
2018-09-04T11:24:01.005Z,1003.87
2018-09-04T11:25:00.995Z,1003.88
2018-09-04T11:26:00.988Z,1003.88
2018-09-04T11:27:00.984Z,1003.86
2018-09-04T11:28:00.980Z,1003.82
2018-09-04T11:29:00.960Z,1003.87
2018-09-04T11:30:00.951Z,1003.86
2018-09-04T11:31:00.954Z,1003.82
2018-09-04T11:32:00.930Z,1003.84
2018-09-04T11:33:00.940Z,1003.83
2018-09-04T11:34:00.913Z,1003.79
2018-09-04T11:35:00.899Z,1003.77
2018-09-04T11:36:00.891Z,1003.73
2018-09-04T11:37:00.881Z,1003.75
2018-09-04T11:38:00.871Z,1003.71
2018-09-04T11:39:00.873Z,1003.74
2018-09-04T11:40:00.882Z,1003.72
2018-09-04T11:41:00.838Z,1003.77
2018-09-04T11:42:00.827Z,1003.75
2018-09-04T11:43:00.818Z,1003.75
2018-09-04T11:44:00.821Z,1003.75
2018-09-04T11:45:00.800Z,1003.77
2018-09-04T11:46:00.789Z,1003.78
2018-09-04T11:47:00.854Z,1003.59
2018-09-04T11:48:00.770Z,1003.55
2018-09-04T11:49:00.777Z,1003.79
2018-09-04T11:50:00.755Z,1003.78
2018-09-04T11:51:00.740Z,1003.71
2018-09-04T11:52:00.732Z,1003.78
2018-09-04T11:53:00.746Z,1003.80
2018-09-04T11:54:00.708Z,1003.80
2018-09-04T11:55:00.700Z,1003.81
2018-09-04T11:56:00.690Z,1003.83
2018-09-04T11:57:00.686Z,1003.80
2018-09-04T11:58:00.691Z,1003.81
2018-09-04T11:59:00.663Z,1003.76
2018-09-04T12:00:00.655Z,1003.72
2018-09-04T12:01:00.644Z,1003.67
2018-09-04T12:02:00.640Z,1003.72
2018-09-04T12:03:00.624Z,1003.75
2018-09-04T12:04:00.627Z,1003.76
2018-09-04T12:05:00.614Z,1003.76